createdAt,value
2023-01-09T00:02:09.577Z,28.67
2023-01-09T00:04:37.344Z,32.20
2023-01-09T00:07:04.591Z,31.57
2023-01-09T00:09:31.662Z,30.77
2023-01-09T00:11:58.864Z,31.70
2023-01-09T00:14:25.795Z,32.97
2023-01-09T00:16:55.707Z,26.60
2023-01-09T00:19:22.898Z,28.97
2023-01-09T00:21:50.161Z,27.07
2023-01-09T00:24:17.054Z,28.03
2023-01-09T00:26:44.226Z,28.30
2023-01-09T00:29:11.722Z,29.93
2023-01-09T00:31:38.898Z,27.97
2023-01-09T00:34:07.942Z,28.57
2023-01-09T00:36:35.107Z,27.77
2023-01-09T00:39:02.125Z,32.30
2023-01-09T00:41:34.940Z,28.87
2023-01-09T00:44:08.313Z,27.70
2023-01-09T00:46:40.243Z,26.97
2023-01-09T00:49:09.177Z,26.73
2023-01-09T00:54:04.342Z,31.10
2023-01-09T00:56:32.526Z,30.33
2023-01-09T00:58:59.562Z,29.53
2023-01-09T01:01:26.863Z,27.73
2023-01-09T01:03:53.849Z,24.87
2023-01-09T01:06:40.048Z,23.70
2023-01-09T01:09:06.957Z,27.97
2023-01-09T01:11:34.622Z,23.80
2023-01-09T01:14:01.662Z,25.10
2023-01-09T01:16:28.873Z,24.80
2023-01-09T01:18:56.014Z,22.80
2023-01-09T01:21:23.283Z,22.27
2023-01-09T01:23:50.223Z,21.53
2023-01-09T01:26:17.790Z,21.17
2023-01-09T01:28:44.773Z,23.60
2023-01-09T01:31:19.778Z,20.45
2023-01-09T01:33:47.486Z,22.37
2023-01-09T01:36:17.520Z,21.10
2023-01-09T01:38:44.848Z,23.43
2023-01-09T01:41:12.037Z,24.20
2023-01-09T01:44:00.323Z,21.60
2023-01-09T01:46:29.211Z,24.40
2023-01-09T01:49:12.467Z,22.60
2023-01-09T01:51:44.953Z,22.70
2023-01-09T01:54:19.621Z,22.13
2023-01-09T01:56:50.560Z,19.03
2023-01-09T01:59:24.117Z,20.13
2023-01-09T02:01:54.452Z,18.93
2023-01-09T02:04:21.570Z,19.83
2023-01-09T02:06:52.465Z,21.10
2023-01-09T02:09:22.816Z,20.48
2023-01-09T02:11:54.808Z,20.13
2023-01-09T02:14:24.574Z,20.87
2023-01-09T02:17:39.266Z,19.73
2023-01-09T02:20:31.083Z,22.58
2023-01-09T02:23:35.343Z,24.67
2023-01-09T02:26:26.288Z,25.33
2023-01-09T02:29:02.603Z,26.23
2023-01-09T02:32:01.570Z,24.03
2023-01-09T02:34:51.678Z,22.83
2023-01-09T02:37:40.058Z,24.60
2023-01-09T02:40:51.580Z,24.80
2023-01-09T02:43:19.296Z,25.83
2023-01-09T02:45:46.536Z,23.67
2023-01-09T02:48:13.647Z,24.60
2023-01-09T02:50:51.062Z,25.83
2023-01-09T02:53:36.019Z,24.80
2023-01-09T02:56:23.713Z,27.00
2023-01-09T02:59:12.411Z,27.33
2023-01-09T03:02:17.446Z,24.73
2023-01-09T03:04:53.627Z,29.67
2023-01-09T03:07:39.554Z,24.47
2023-01-09T03:10:16.769Z,28.27
2023-01-09T03:12:47.395Z,26.20
2023-01-09T03:18:12.466Z,28.33
2023-01-09T03:20:41.252Z,26.53
2023-01-09T03:23:08.759Z,27.92
2023-01-09T03:25:36.159Z,26.40
2023-01-09T03:28:13.232Z,26.50
2023-01-09T03:30:40.451Z,27.77
2023-01-09T03:33:07.432Z,25.17
2023-01-09T03:35:34.591Z,24.83
2023-01-09T03:38:01.490Z,35.63
2023-01-09T03:40:28.727Z,25.20
2023-01-09T03:42:55.679Z,29.63
2023-01-09T03:45:22.842Z,28.60
2023-01-09T03:47:51.679Z,27.43
2023-01-09T03:50:20.224Z,29.03
2023-01-09T03:52:47.100Z,26.50
2023-01-09T03:55:15.719Z,29.60
2023-01-09T03:57:42.854Z,30.83
2023-01-09T04:00:12.775Z,29.63
2023-01-09T04:02:39.861Z,36.07
2023-01-09T04:05:07.854Z,29.53
2023-01-09T04:07:34.750Z,30.83
2023-01-09T04:10:01.993Z,26.63
2023-01-09T04:12:28.969Z,28.87
2023-01-09T04:14:56.173Z,26.87
2023-01-09T04:17:23.183Z,29.10
2023-01-09T04:19:50.945Z,27.87
2023-01-09T04:22:17.879Z,32.50
2023-01-09T04:24:45.071Z,24.47
2023-01-09T04:27:13.015Z,24.37
2023-01-09T04:29:40.212Z,27.63
2023-01-09T04:32:07.217Z,26.93
2023-01-09T04:34:34.457Z,28.07
2023-01-09T04:37:01.319Z,26.93
2023-01-09T04:39:28.562Z,26.50
2023-01-09T04:41:55.738Z,25.27
2023-01-09T04:44:27.579Z,25.80
2023-01-09T04:46:56.603Z,27.83
2023-01-09T04:49:23.822Z,25.30
2023-01-09T04:51:50.805Z,26.43
2023-01-09T04:54:18.404Z,24.37
2023-01-09T04:56:45.276Z,25.07
2023-01-09T04:59:12.843Z,27.27
2023-01-09T05:01:40.208Z,25.07
2023-01-09T05:04:07.779Z,24.73
2023-01-09T05:06:35.124Z,25.00
2023-01-09T05:09:02.556Z,25.97
2023-01-09T05:11:29.476Z,27.33
2023-01-09T05:13:57.004Z,22.50
2023-01-09T05:16:23.948Z,23.33
2023-01-09T05:18:56.556Z,25.73
2023-01-09T05:21:24.739Z,25.00
2023-01-09T05:23:52.227Z,25.90
2023-01-09T05:26:26.208Z,27.13
2023-01-09T05:28:56.561Z,27.17
2023-01-09T05:31:26.033Z,26.13
2023-01-09T05:33:54.409Z,24.83
2023-01-09T05:36:21.405Z,23.50
2023-01-09T05:38:48.596Z,24.67
2023-01-09T05:41:15.525Z,25.40
2023-01-09T05:43:42.758Z,27.60
2023-01-09T05:46:09.743Z,29.73
2023-01-09T05:48:37.956Z,23.87
2023-01-09T05:51:05.043Z,24.47
2023-01-09T05:53:32.276Z,26.77
2023-01-09T05:55:59.194Z,27.30
2023-01-09T05:58:26.741Z,29.70
2023-01-09T06:00:54.161Z,26.80
2023-01-09T06:03:21.602Z,26.13
2023-01-09T06:05:48.524Z,23.97
2023-01-09T06:08:15.745Z,26.20
2023-01-09T06:10:42.627Z,27.27
2023-01-09T06:13:09.930Z,26.00
2023-01-09T06:15:36.877Z,27.67
2023-01-09T06:18:04.843Z,27.80
2023-01-09T06:20:31.834Z,28.20
2023-01-09T06:22:59.172Z,27.20
2023-01-09T06:25:26.164Z,31.77
2023-01-09T06:27:53.353Z,30.63
2023-01-09T06:30:20.671Z,27.50
2023-01-09T06:32:51.353Z,26.63
2023-01-09T06:35:20.582Z,23.87
2023-01-09T06:37:51.051Z,30.13
2023-01-09T06:40:18.731Z,34.03
2023-01-09T06:42:46.816Z,33.83
2023-01-09T06:45:15.801Z,54.33
2023-01-09T06:47:43.341Z,33.83
2023-01-09T06:50:11.234Z,51.33
2023-01-09T06:52:39.064Z,30.23
2023-01-09T06:55:06.876Z,30.20
2023-01-09T06:57:34.454Z,29.77
2023-01-09T07:00:01.493Z,34.93
2023-01-09T07:02:28.782Z,43.47
2023-01-09T07:04:55.885Z,43.43
2023-01-09T07:07:23.193Z,49.87
2023-01-09T07:09:50.118Z,61.67
2023-01-09T07:12:17.503Z,48.17
2023-01-09T07:14:44.539Z,46.30
2023-01-09T07:17:14.956Z,34.57
2023-01-09T07:19:42.374Z,32.20
2023-01-09T07:22:10.957Z,40.30
2023-01-09T07:24:37.945Z,37.40
2023-01-09T07:27:05.279Z,44.83
2023-01-09T07:29:32.355Z,49.40
2023-01-09T07:31:59.648Z,42.33
2023-01-09T07:34:26.539Z,36.37
2023-01-09T07:36:53.779Z,36.57
2023-01-09T07:39:20.991Z,30.13
2023-01-09T07:41:48.244Z,23.57
2023-01-09T07:44:15.189Z,21.93
2023-01-09T07:46:42.572Z,20.30
2023-01-09T07:49:09.517Z,22.97
2023-01-09T07:51:39.235Z,20.13
2023-01-09T07:54:06.347Z,19.53
2023-01-09T07:56:33.585Z,22.40
2023-01-09T07:59:00.541Z,22.20
2023-01-09T08:01:27.839Z,23.43
2023-01-09T08:03:54.827Z,22.37
2023-01-09T08:06:22.054Z,21.43
2023-01-09T08:08:50.243Z,20.10
2023-01-09T08:11:17.142Z,17.57
2023-01-09T08:13:44.295Z,16.92
2023-01-09T08:16:11.341Z,27.00
2023-01-09T08:18:38.714Z,22.20
2023-01-09T08:21:05.756Z,15.80
2023-01-09T08:23:33.072Z,8.13
2023-01-09T08:26:00.014Z,9.05
2023-01-09T08:28:27.416Z,7.97
2023-01-09T08:30:54.500Z,7.65
2023-01-09T08:33:21.918Z,8.38
2023-01-09T08:35:52.786Z,6.78
2023-01-09T08:38:22.142Z,7.15
2023-01-09T08:40:52.111Z,6.38
2023-01-09T08:43:38.641Z,9.80
2023-01-09T08:46:36.302Z,6.22
2023-01-09T08:49:03.641Z,9.02
2023-01-09T08:51:30.683Z,6.38
2023-01-09T08:53:58.010Z,7.18
2023-01-09T08:56:24.939Z,7.53
2023-01-09T08:58:52.127Z,6.45
2023-01-09T09:01:19.014Z,5.03
2023-01-09T09:03:46.527Z,6.60
2023-01-09T09:06:13.485Z,10.68
2023-01-09T09:08:40.744Z,9.30
2023-01-09T09:11:07.676Z,6.35
2023-01-09T09:13:34.834Z,7.15
2023-01-09T09:16:01.931Z,11.60
2023-01-09T09:18:29.182Z,10.27
2023-01-09T09:20:56.127Z,9.70
2023-01-09T09:23:23.763Z,7.50
2023-01-09T09:25:50.851Z,5.28
2023-01-09T09:28:18.088Z,9.30
2023-01-09T09:30:45.103Z,9.10
2023-01-09T09:33:12.375Z,8.55
2023-01-09T09:35:39.231Z,8.13
2023-01-09T09:38:06.586Z,8.52
2023-01-09T09:40:48.676Z,9.05
2023-01-09T09:43:47.620Z,8.43
2023-01-09T09:46:41.019Z,8.23
2023-01-09T09:49:29.128Z,8.50
2023-01-09T09:52:01.805Z,7.88
2023-01-09T09:54:41.412Z,11.68
2023-01-09T09:57:16.410Z,11.23
2023-01-09T09:59:48.399Z,8.98
2023-01-09T10:02:45.328Z,8.60
2023-01-09T10:05:20.234Z,7.30
2023-01-09T10:07:51.100Z,8.57
2023-01-09T10:10:33.808Z,7.32
2023-01-09T10:13:21.483Z,6.18
2023-01-09T10:16:21.652Z,8.90
2023-01-09T10:19:06.526Z,10.05
2023-01-09T10:21:50.638Z,7.85
2023-01-09T10:24:36.122Z,6.15
2023-01-09T10:27:16.411Z,7.18
2023-01-09T10:30:02.307Z,9.27
2023-01-09T10:32:38.578Z,5.75
2023-01-09T10:35:39.268Z,7.57
2023-01-09T10:38:13.817Z,8.60
2023-01-09T10:40:47.722Z,9.88
2023-01-09T10:43:46.066Z,6.97
2023-01-09T10:46:23.526Z,7.55
2023-01-09T10:48:56.248Z,7.47
2023-01-09T10:51:32.962Z,6.95
2023-01-09T10:54:00.133Z,9.95
2023-01-09T10:56:34.044Z,6.75
2023-01-09T10:59:01.764Z,7.13
2023-01-09T11:01:32.375Z,8.02
2023-01-09T11:04:01.813Z,7.40
2023-01-09T11:06:46.353Z,8.02
2023-01-09T11:09:15.275Z,12.15
2023-01-09T11:11:42.205Z,9.15
2023-01-09T11:14:22.779Z,8.40
2023-01-09T11:16:56.781Z,8.63
2023-01-09T11:19:25.448Z,7.72
2023-01-09T11:22:07.891Z,10.30
2023-01-09T11:24:35.357Z,9.82
2023-01-09T11:27:25.862Z,10.52
2023-01-09T11:30:20.099Z,9.07
2023-01-09T11:32:48.497Z,10.52
2023-01-09T11:35:22.791Z,8.20
2023-01-09T11:38:08.243Z,7.78
2023-01-09T11:40:49.459Z,8.82
2023-01-09T11:43:19.061Z,8.50
2023-01-09T11:46:00.456Z,9.95
2023-01-09T11:48:33.256Z,9.00
2023-01-09T11:51:02.813Z,7.85
2023-01-09T11:56:02.085Z,9.98
2023-01-09T11:58:33.111Z,8.18
2023-01-09T12:01:16.015Z,11.15
2023-01-09T12:04:15.976Z,7.70
2023-01-09T12:07:04.910Z,8.77
2023-01-09T12:09:51.500Z,7.13
2023-01-09T12:12:31.263Z,7.97
2023-01-09T12:15:09.894Z,7.85
2023-01-09T12:17:55.262Z,10.57
2023-01-09T12:20:28.323Z,7.18
2023-01-09T12:23:09.564Z,8.13
2023-01-09T12:25:50.445Z,8.40
2023-01-09T12:28:42.300Z,8.25
2023-01-09T12:31:36.832Z,6.90
2023-01-09T12:34:06.864Z,6.65
2023-01-09T12:36:55.789Z,9.38
2023-01-09T12:39:44.656Z,7.95
2023-01-09T12:43:00.068Z,6.85
2023-01-09T12:45:33.042Z,8.23
2023-01-09T12:48:34.072Z,7.10
2023-01-09T12:51:08.548Z,6.68
2023-01-09T12:53:52.656Z,5.40
2023-01-09T12:56:26.571Z,6.70
2023-01-09T12:58:58.844Z,5.93
2023-01-09T13:01:32.995Z,4.93
2023-01-09T13:04:44.470Z,6.03
2023-01-09T13:07:20.454Z,11.02
2023-01-09T13:09:53.318Z,6.25
2023-01-09T13:12:24.793Z,9.30
2023-01-09T13:14:57.455Z,7.65
2023-01-09T13:17:42.231Z,6.95
2023-01-09T13:20:18.110Z,6.25
2023-01-09T13:22:50.348Z,8.63
2023-01-09T13:25:25.899Z,7.95
2023-01-09T13:28:01.169Z,7.93
2023-01-09T13:30:47.229Z,8.43
2023-01-09T13:33:14.416Z,7.28
2023-01-09T13:35:56.163Z,6.57
2023-01-09T13:38:26.209Z,8.00
2023-01-09T13:41:27.143Z,7.20
2023-01-09T13:44:01.778Z,7.57
2023-01-09T13:46:53.151Z,8.32
2023-01-09T13:49:41.399Z,8.68
2023-01-09T13:52:36.930Z,8.45
2023-01-09T13:55:04.254Z,8.02
2023-01-09T13:57:36.413Z,7.93
2023-01-09T14:00:12.657Z,5.97
2023-01-09T14:02:39.515Z,8.70
2023-01-09T14:05:13.432Z,8.05
2023-01-09T14:07:45.835Z,8.27
2023-01-09T14:10:25.315Z,7.70
2023-01-09T14:12:55.754Z,7.82
2023-01-09T14:15:39.656Z,9.88
2023-01-09T14:18:36.738Z,7.10
2023-01-09T14:23:57.383Z,7.68
2023-01-09T14:26:45.265Z,9.32
2023-01-09T14:29:36.987Z,10.57
2023-01-09T14:32:38.936Z,8.63
2023-01-09T14:35:15.448Z,10.68
2023-01-09T14:37:45.801Z,13.15
2023-01-09T14:40:23.890Z,11.70
2023-01-09T14:42:54.488Z,8.85
2023-01-09T14:45:25.773Z,10.80
2023-01-09T14:48:03.987Z,11.70
2023-01-09T14:50:59.808Z,12.45
2023-01-09T14:53:34.372Z,24.85
2023-01-09T14:56:06.077Z,11.25
2023-01-09T14:58:35.307Z,15.35
2023-01-09T15:01:08.503Z,18.35
2023-01-09T15:03:50.117Z,10.98
2023-01-09T15:06:26.933Z,15.05
2023-01-09T15:09:07.680Z,14.10
2023-01-09T15:11:39.249Z,14.68
2023-01-09T15:14:08.948Z,17.77
2023-01-09T15:16:36.316Z,21.30
2023-01-09T15:19:07.785Z,16.85
2023-01-09T15:21:34.822Z,17.67
2023-01-09T15:24:32.564Z,14.20
2023-01-09T15:27:02.050Z,17.00
2023-01-09T15:29:29.882Z,12.43
2023-01-09T15:32:18.881Z,13.45
2023-01-09T15:34:47.885Z,12.40
2023-01-09T15:37:39.130Z,12.90
2023-01-09T15:40:08.688Z,25.80
2023-01-09T15:42:58.245Z,19.92
2023-01-09T15:45:34.048Z,19.63
2023-01-09T15:48:30.962Z,19.55
2023-01-09T15:51:04.641Z,12.85
2023-01-09T15:53:32.324Z,49.53
2023-01-09T15:56:08.041Z,23.58
2023-01-09T15:58:37.687Z,13.40
2023-01-09T16:01:04.999Z,13.38
2023-01-09T16:03:32.113Z,11.15
2023-01-09T16:06:06.953Z,13.38
2023-01-09T16:08:52.197Z,13.55
2023-01-09T16:11:31.687Z,18.83
2023-01-09T16:14:18.776Z,15.63
2023-01-09T16:16:47.212Z,10.30
2023-01-09T16:19:29.687Z,11.65
2023-01-09T16:21:58.984Z,12.93
2023-01-09T16:24:28.862Z,16.80
2023-01-09T16:27:33.528Z,23.50
2023-01-09T16:30:25.288Z,20.40
2023-01-09T16:32:52.801Z,21.02
2023-01-09T16:35:26.256Z,22.20
2023-01-09T16:37:53.423Z,21.58
2023-01-09T16:40:27.127Z,22.85
2023-01-09T16:43:00.569Z,19.75
2023-01-09T16:45:30.339Z,16.10
2023-01-09T16:47:58.213Z,18.38
2023-01-09T16:50:25.913Z,15.82
2023-01-09T16:52:53.505Z,14.93
2023-01-09T16:55:20.587Z,11.57
2023-01-09T16:57:48.034Z,10.77
2023-01-09T17:00:17.885Z,14.02
2023-01-09T17:02:45.546Z,11.50
2023-01-09T17:05:12.521Z,11.77
2023-01-09T17:07:39.888Z,12.98
2023-01-09T17:10:15.100Z,12.10
2023-01-09T17:12:42.858Z,12.23
2023-01-09T17:15:10.833Z,10.80
2023-01-09T17:17:38.165Z,24.47
2023-01-09T17:20:14.943Z,14.48
2023-01-09T17:22:42.209Z,19.73
2023-01-09T17:25:34.677Z,10.52
2023-01-09T17:28:22.317Z,11.77
2023-01-09T17:30:49.332Z,14.20
2023-01-09T17:33:18.304Z,12.20
2023-01-09T17:35:45.390Z,10.65
2023-01-09T17:38:14.458Z,13.20
2023-01-09T17:40:41.750Z,13.00
2023-01-09T17:43:08.919Z,12.88
2023-01-09T17:45:37.917Z,14.77
2023-01-09T17:48:06.941Z,12.18
2023-01-09T17:50:34.914Z,10.35
2023-01-09T17:53:02.141Z,14.70
2023-01-09T17:55:29.556Z,12.88
2023-01-09T17:57:56.751Z,13.88
2023-01-09T18:00:23.767Z,14.73
2023-01-09T18:02:52.362Z,13.65
2023-01-09T18:05:20.206Z,18.70
2023-01-09T18:07:47.874Z,20.85
2023-01-09T18:10:16.753Z,19.85
2023-01-09T18:12:46.654Z,15.30
2023-01-09T18:15:13.900Z,18.30
2023-01-09T18:17:41.436Z,13.73
2023-01-09T18:20:09.219Z,12.07
2023-01-09T18:22:36.879Z,21.52
2023-01-09T18:25:04.897Z,20.35
2023-01-09T18:27:32.278Z,22.50
2023-01-09T18:30:03.602Z,13.63
2023-01-09T18:32:32.509Z,11.63
2023-01-09T18:34:59.525Z,14.25
2023-01-09T18:37:26.720Z,14.10
2023-01-09T18:39:53.646Z,14.45
2023-01-09T18:42:20.837Z,18.67
2023-01-09T18:44:47.784Z,21.35
2023-01-09T18:47:14.967Z,13.73
2023-01-09T18:49:41.835Z,12.32
2023-01-09T18:52:09.009Z,9.88
2023-01-09T18:54:36.071Z,13.05
2023-01-09T18:57:03.293Z,11.00
2023-01-09T18:59:30.176Z,10.48
2023-01-09T19:01:57.338Z,11.75
2023-01-09T19:04:24.251Z,10.18
2023-01-09T19:06:51.552Z,10.55
2023-01-09T19:09:18.528Z,13.32
2023-01-09T19:11:45.932Z,10.27
2023-01-09T19:14:13.165Z,10.52
2023-01-09T19:16:40.738Z,10.15
2023-01-09T19:19:08.628Z,13.13
2023-01-09T19:21:36.083Z,9.68
2023-01-09T19:24:03.004Z,12.68
2023-01-09T19:26:33.105Z,10.10
2023-01-09T19:29:00.976Z,14.82
2023-01-09T19:31:29.102Z,13.98
2023-01-09T19:33:57.647Z,13.85
2023-01-09T19:36:25.411Z,10.98
2023-01-09T19:38:59.431Z,12.57
2023-01-09T19:41:27.162Z,12.15
2023-01-09T19:43:54.208Z,10.68
2023-01-09T19:46:24.096Z,16.05
2023-01-09T19:48:52.024Z,33.25
2023-01-09T19:51:22.013Z,58.35
2023-01-09T19:53:54.099Z,17.08
2023-01-09T19:56:23.775Z,28.60
2023-01-09T20:01:27.475Z,26.02
2023-01-09T20:03:56.862Z,14.68
2023-01-09T20:06:26.453Z,14.05
2023-01-09T20:08:59.175Z,20.73
2023-01-09T20:11:28.384Z,47.47
2023-01-09T20:13:55.894Z,100.20
2023-01-09T20:16:28.675Z,40.97
2023-01-09T20:19:00.361Z,38.78
2023-01-09T20:21:29.087Z,16.80
2023-01-09T20:23:59.679Z,15.40
2023-01-09T20:26:27.448Z,16.30
2023-01-09T20:28:55.323Z,17.23
2023-01-09T20:31:24.216Z,12.68
2023-01-09T20:33:51.356Z,26.52
2023-01-09T20:36:21.725Z,31.17
2023-01-09T20:38:48.937Z,19.85
2023-01-09T20:41:23.127Z,24.85
2023-01-09T20:43:59.000Z,23.13
2023-01-09T20:46:28.961Z,53.15
2023-01-09T20:48:57.585Z,35.90
2023-01-09T20:51:25.688Z,50.85
2023-01-09T20:53:56.214Z,22.20
2023-01-09T20:56:25.026Z,25.52
2023-01-09T20:58:52.663Z,20.63
2023-01-09T21:01:20.875Z,15.02
2023-01-09T21:03:48.506Z,9.38
2023-01-09T21:06:20.131Z,11.38
2023-01-09T21:08:47.422Z,16.77
2023-01-09T21:11:15.414Z,16.50
2023-01-09T21:13:42.473Z,18.52
2023-01-09T21:16:15.041Z,18.38
2023-01-09T21:18:44.093Z,21.40
2023-01-09T21:21:14.216Z,20.45
2023-01-09T21:23:53.036Z,19.23
2023-01-09T21:26:22.600Z,18.27
2023-01-09T21:28:55.132Z,22.15
2023-01-09T21:31:26.806Z,23.95
2023-01-09T21:33:54.681Z,25.42
2023-01-09T21:36:22.257Z,23.27
2023-01-09T21:38:52.186Z,25.70
2023-01-09T21:41:39.915Z,27.48
2023-01-09T21:44:25.543Z,25.35
2023-01-09T21:46:52.858Z,29.60
2023-01-09T21:49:21.051Z,35.53
2023-01-09T21:51:48.253Z,37.90
2023-01-09T21:54:15.464Z,34.55
2023-01-09T21:56:42.683Z,30.27
2023-01-09T21:59:10.278Z,30.08
2023-01-09T22:01:37.576Z,40.35
2023-01-09T22:04:04.776Z,36.65
2023-01-09T22:06:32.073Z,33.53
2023-01-09T22:08:59.407Z,29.45
2023-01-09T22:11:26.790Z,36.33
2023-01-09T22:13:54.108Z,42.55
2023-01-09T22:16:24.329Z,40.70
2023-01-09T22:18:51.251Z,43.45
2023-01-09T22:21:18.697Z,45.00
2023-01-09T22:23:45.638Z,40.08
2023-01-09T22:26:15.581Z,34.15
2023-01-09T22:28:44.921Z,44.28
2023-01-09T22:31:16.236Z,50.50
2023-01-09T22:33:43.628Z,45.20
2023-01-09T22:36:12.085Z,43.30
2023-01-09T22:38:39.215Z,54.63
2023-01-09T22:41:06.506Z,44.47
2023-01-09T22:43:33.474Z,43.30
2023-01-09T22:46:09.082Z,43.07
2023-01-09T22:48:37.253Z,43.45
2023-01-09T22:51:07.732Z,38.22
2023-01-09T22:53:34.901Z,42.70
2023-01-09T22:56:05.238Z,40.27
2023-01-09T22:58:32.644Z,39.20
2023-01-09T23:01:00.066Z,42.13
2023-01-09T23:03:27.671Z,44.63
2023-01-09T23:06:27.216Z,46.85
2023-01-09T23:08:54.321Z,43.80
2023-01-09T23:11:46.394Z,43.43
2023-01-09T23:14:13.677Z,47.63
2023-01-09T23:16:41.567Z,42.53
2023-01-09T23:19:09.997Z,45.13
2023-01-09T23:21:37.511Z,44.08
2023-01-09T23:24:07.054Z,48.43
2023-01-09T23:26:35.505Z,46.95
2023-01-09T23:29:02.520Z,41.77
2023-01-09T23:31:29.722Z,42.33
2023-01-09T23:33:56.767Z,44.03
2023-01-09T23:36:24.009Z,46.22
2023-01-09T23:38:51.026Z,46.13
2023-01-09T23:41:18.508Z,48.38
2023-01-09T23:43:46.071Z,51.47
2023-01-09T23:46:13.525Z,58.07
2023-01-09T23:48:40.520Z,51.97
2023-01-09T23:51:07.970Z,56.83
2023-01-09T23:53:34.945Z,63.58
2023-01-09T23:56:03.144Z,52.75
2023-01-09T23:58:30.052Z,52.40
